Time;durP1;ratioP1;P1;durP2;ratioP2;P2;SDS_P1;SDS_P2;PMS_P1;PMS_P2;Temp;Humidity;BMP_temperature;BMP_pressure;BME280_temperature;BME280_humidity;BME280_pressure;Samples;Min_cycle;Max_cycle;Signal;HPM_P1;HPM_P2
2024/01/13 00:01:51;;;;;;;89.18;38.72;;;-3.70;73.90;;;;;;5094916;28;20528;-77
2024/01/13 00:04:17;;;;;;;89.43;41.33;;;-3.60;74.10;;;;;;5094860;28;20024;-78
2024/01/13 00:06:42;;;;;;;91.82;39.88;;;-3.60;74.00;;;;;;5094946;28;20510;-77
2024/01/13 00:09:08;;;;;;;104.93;45.97;;;-3.70;73.80;;;;;;5094811;28;20081;-78
2024/01/13 00:11:34;;;;;;;97.95;42.28;;;-3.80;74.30;;;;;;5094848;28;20083;-77
2024/01/13 00:13:59;;;;;;;91.38;38.90;;;-3.70;74.70;;;;;;5094558;28;20020;-77
2024/01/13 00:16:26;;;;;;;98.43;39.70;;;-3.80;74.40;;;;;;5094619;28;20089;-77
2024/01/13 00:18:51;;;;;;;88.28;40.58;;;-3.80;74.00;;;;;;5094648;28;20027;-78
2024/01/13 00:21:17;;;;;;;88.05;38.17;;;-3.90;73.70;;;;;;5094545;28;20024;-77
2024/01/13 00:23:43;;;;;;;86.05;39.08;;;-3.90;73.30;;;;;;5094534;28;20058;-77
2024/01/13 00:26:09;;;;;;;85.20;39.28;;;-3.90;72.90;;;;;;5094493;28;20032;-78
2024/01/13 00:28:34;;;;;;;79.05;36.85;;;-4.00;72.40;;;;;;5076305;28;20488;-78
2024/01/13 00:31:00;;;;;;;82.93;38.65;;;-4.00;71.40;;;;;;5094433;28;20028;-77
2024/01/13 00:33:25;;;;;;;81.28;36.45;;;-4.00;70.70;;;;;;5094390;28;20031;-77
2024/01/13 00:35:51;;;;;;;83.63;36.28;;;-4.20;70.00;;;;;;5094030;28;20036;-78
2024/01/13 00:38:17;;;;;;;87.32;38.75;;;-4.30;69.80;;;;;;5094341;28;20516;-78
2024/01/13 00:40:43;;;;;;;77.63;37.53;;;-4.40;69.70;;;;;;5094161;28;20032;-77
2024/01/13 00:43:09;;;;;;;78.28;37.67;;;-4.40;70.00;;;;;;5093991;28;20475;-77
2024/01/13 00:45:34;;;;;;;81.82;39.00;;;-4.40;70.10;;;;;;5093707;28;20162;-78
2024/01/13 00:48:01;;;;;;;75.43;35.97;;;-4.40;70.30;;;;;;5094038;28;20486;-77
2024/01/13 00:50:26;;;;;;;88.97;38.33;;;-4.40;70.30;;;;;;5093865;28;20028;-77
2024/01/13 00:52:52;;;;;;;89.75;38.13;;;-4.30;70.70;;;;;;5094099;28;20055;-77
2024/01/13 00:55:17;;;;;;;87.47;38.60;;;-4.30;71.20;;;;;;5093950;28;20396;-77
2024/01/13 00:57:43;;;;;;;84.22;39.67;;;-4.30;71.20;;;;;;5093980;28;20063;-77
2024/01/13 01:00:10;;;;;;;87.50;37.97;;;-4.30;71.20;;;;;;5093850;28;20601;-77
2024/01/13 01:02:36;;;;;;;89.45;41.42;;;-4.30;71.40;;;;;;5093761;28;20024;-78
2024/01/13 01:05:01;;;;;;;81.10;39.17;;;-4.30;71.50;;;;;;5093596;28;20035;-77
2024/01/13 01:07:27;;;;;;;90.32;39.42;;;-4.30;71.60;;;;;;5092722;28;20017;-77
2024/01/13 01:09:52;;;;;;;92.35;41.00;;;-4.40;71.80;;;;;;5093733;28;20032;-77
2024/01/13 01:12:18;;;;;;;96.95;42.83;;;-4.40;71.80;;;;;;5093619;28;20024;-77
2024/01/13 01:14:43;;;;;;;94.55;41.15;;;-4.40;72.10;;;;;;5093556;28;20028;-77
2024/01/13 01:17:09;;;;;;;83.60;39.30;;;-4.40;72.30;;;;;;5093635;28;20020;-77
2024/01/13 01:19:34;;;;;;;84.10;35.75;;;-4.50;72.50;;;;;;5093476;28;20032;-77
2024/01/13 01:22:00;;;;;;;90.07;37.58;;;-4.50;72.50;;;;;;5093451;28;20031;-77
2024/01/13 01:24:25;;;;;;;88.13;38.97;;;-4.60;72.40;;;;;;5093280;28;20035;-77
2024/01/13 01:26:51;;;;;;;93.72;40.35;;;-4.50;72.50;;;;;;5093416;28;20072;-77
2024/01/13 01:29:16;;;;;;;92.28;38.17;;;-4.70;73.00;;;;;;5093333;28;20362;-77
2024/01/13 01:31:42;;;;;;;93.28;39.97;;;-4.90;73.80;;;;;;5093210;28;20410;-77
2024/01/13 01:34:07;;;;;;;105.22;39.38;;;-5.00;74.10;;;;;;5074988;28;20510;-77
2024/01/13 01:36:33;;;;;;;93.68;35.25;;;-5.20;75.10;;;;;;5093037;28;20054;-77
2024/01/13 01:38:58;;;;;;;84.32;38.28;;;-5.20;75.60;;;;;;5093105;28;20028;-77
2024/01/13 01:41:25;;;;;;;88.88;37.33;;;-5.30;75.90;;;;;;5093124;28;20028;-77
2024/01/13 01:43:50;;;;;;;87.78;39.05;;;-5.20;76.00;;;;;;5092853;28;20085;-77
2024/01/13 01:46:19;;;;;;;92.97;39.47;;;-5.20;76.40;;;;;;5093075;28;20036;-77
2024/01/13 01:48:45;;;;;;;89.50;37.92;;;-5.20;76.40;;;;;;5092955;28;20025;-77
2024/01/13 01:51:13;;;;;;;79.32;34.53;;;-5.20;76.20;;;;;;5093106;28;20027;-75
2024/01/13 01:53:39;;;;;;;83.47;33.13;;;-5.20;76.20;;;;;;5093200;28;20024;-75
2024/01/13 01:56:27;;;;;;;81.60;34.42;;;-5.20;76.00;;;;;;5074700;28;20389;-74
2024/01/13 01:58:53;;;;;;;78.85;35.25;;;-5.20;75.80;;;;;;5092428;28;20165;-75
2024/01/13 02:01:21;;;;;;;77.20;32.70;;;-5.20;75.90;;;;;;5092901;28;20089;-76
2024/01/13 02:03:47;;;;;;;78.22;32.22;;;-5.10;76.50;;;;;;5092751;28;20488;-77
2024/01/13 02:06:13;;;;;;;76.35;33.28;;;-5.20;75.80;;;;;;5092660;28;20109;-76
2024/01/13 02:08:39;;;;;;;71.45;32.17;;;-5.10;75.70;;;;;;5092775;28;20419;-76
2024/01/13 02:11:05;;;;;;;83.90;35.95;;;-5.10;75.70;;;;;;5092816;28;20028;-76
2024/01/13 02:13:31;;;;;;;78.82;34.33;;;-5.10;75.70;;;;;;5092841;28;20392;-77
2024/01/13 02:15:57;;;;;;;72.80;31.67;;;-5.10;75.50;;;;;;5092729;28;20024;-76
2024/01/13 02:18:22;;;;;;;78.80;34.25;;;-5.10;75.30;;;;;;5092838;28;20032;-77
2024/01/13 02:20:48;;;;;;;99.30;39.40;;;-5.10;75.60;;;;;;5078610;28;20092;-76
2024/01/13 02:23:13;;;;;;;81.10;36.85;;;-5.10;75.60;;;;;;5096878;28;20407;-76
2024/01/13 02:25:39;;;;;;;93.30;37.45;;;-5.20;75.40;;;;;;5096621;28;20036;-77
2024/01/13 02:28:05;;;;;;;91.80;39.30;;;-5.20;75.10;;;;;;5096952;28;20016;-76
2024/01/13 02:30:30;;;;;;;91.40;37.35;;;-5.10;75.40;;;;;;5096692;28;20066;-77
2024/01/13 02:32:56;;;;;;;84.03;38.45;;;-5.10;75.40;;;;;;5096630;28;20024;-76
2024/01/13 02:35:21;;;;;;;79.75;35.05;;;-5.00;75.20;;;;;;5096657;28;20020;-77
2024/01/13 02:37:47;;;;;;;79.03;36.25;;;-4.90;75.00;;;;;;5096211;28;20056;-76
2024/01/13 02:40:12;;;;;;;82.70;35.10;;;-4.90;74.10;;;;;;5096528;28;20028;-76
2024/01/13 02:42:38;;;;;;;82.13;36.40;;;-4.90;74.00;;;;;;5096461;28;20031;-76
2024/01/13 02:45:04;;;;;;;84.35;38.28;;;-4.80;73.50;;;;;;5096216;28;20063;-76
2024/01/13 02:47:42;;;;;;;73.03;32.85;;;-4.90;73.20;;;;;;5078226;28;20020;-76
2024/01/13 02:50:07;;;;;;;78.25;35.00;;;-4.90;73.10;;;;;;5096253;28;20028;-76
2024/01/13 02:52:33;;;;;;;77.05;33.90;;;-4.80;73.00;;;;;;5096332;28;20066;-76
2024/01/13 02:54:59;;;;;;;76.90;33.58;;;-4.90;72.00;;;;;;5096266;28;20512;-76
2024/01/13 02:57:26;;;;;;;78.85;32.47;;;-4.90;72.00;;;;;;5096106;28;20067;-77
2024/01/13 02:59:51;;;;;;;78.88;32.25;;;-4.90;71.30;;;;;;5096185;28;20048;-76
2024/01/13 03:02:17;;;;;;;71.57;31.83;;;-5.00;71.10;;;;;;5077970;28;20035;-76
2024/01/13 03:04:42;;;;;;;80.15;32.83;;;-5.10;71.30;;;;;;5096048;28;20044;-76
2024/01/13 03:07:08;;;;;;;79.15;36.38;;;-5.10;71.80;;;;;;5096042;28;20055;-76
2024/01/13 03:09:34;;;;;;;78.20;36.50;;;-5.10;72.20;;;;;;5095977;28;20029;-76
2024/01/13 03:11:59;;;;;;;75.55;32.78;;;-5.00;72.00;;;;;;5095964;28;20027;-76
2024/01/13 03:14:25;;;;;;;82.63;35.55;;;-5.10;71.70;;;;;;5095861;28;20024;-76
2024/01/13 03:16:50;;;;;;;71.68;34.33;;;-5.10;71.70;;;;;;5095870;28;20039;-76
2024/01/13 03:19:16;;;;;;;82.07;35.78;;;-5.20;71.60;;;;;;5095869;28;20020;-76
2024/01/13 03:21:41;;;;;;;82.38;35.50;;;-5.20;71.90;;;;;;5077616;28;20020;-76
2024/01/13 03:24:07;;;;;;;69.43;32.08;;;-5.30;71.90;;;;;;5095622;28;20027;-75
2024/01/13 03:26:32;;;;;;;73.55;34.17;;;-5.40;72.00;;;;;;5095580;28;20106;-76
2024/01/13 03:28:59;;;;;;;64.90;29.67;;;-5.40;72.20;;;;;;5077818;28;20020;-76
2024/01/13 03:31:25;;;;;;;63.30;30.40;;;-5.50;72.30;;;;;;5094407;28;20024;-77
2024/01/13 03:33:50;;;;;;;70.03;31.17;;;-5.40;72.20;;;;;;5095623;28;20404;-76
2024/01/13 03:36:16;;;;;;;73.43;30.77;;;-5.40;72.00;;;;;;5095281;28;20044;-76
2024/01/13 03:38:42;;;;;;;69.28;30.42;;;-5.50;71.70;;;;;;5095454;28;20024;-75
2024/01/13 03:41:08;;;;;;;70.75;32.83;;;-5.50;71.60;;;;;;5095391;28;20027;-75
2024/01/13 03:43:33;;;;;;;75.47;33.63;;;-5.50;71.70;;;;;;5095362;28;20098;-76
2024/01/13 03:45:59;;;;;;;70.55;30.05;;;-5.60;72.00;;;;;;5095355;28;20039;-76
2024/01/13 03:48:25;;;;;;;63.20;29.05;;;-5.60;72.40;;;;;;5095365;28;20051;-76
2024/01/13 03:50:50;;;;;;;71.63;31.02;;;-5.60;72.60;;;;;;5077039;28;20487;-76
2024/01/13 03:53:16;;;;;;;72.80;29.13;;;-5.50;72.60;;;;;;5095214;28;20027;-77
2024/01/13 03:55:41;;;;;;;74.90;30.48;;;-5.60;72.50;;;;;;5095186;28;20388;-77
2024/01/13 03:58:07;;;;;;;65.47;26.75;;;-5.60;72.50;;;;;;5095115;28;20024;-77
2024/01/13 04:00:34;;;;;;;64.95;28.58;;;-5.50;72.70;;;;;;5095128;28;20366;-77
2024/01/13 04:03:00;;;;;;;74.32;33.88;;;-5.50;72.60;;;;;;5095482;28;20407;-77
2024/01/13 04:05:27;;;;;;;70.65;32.72;;;-5.50;72.70;;;;;;5094983;28;20158;-76
2024/01/13 04:07:52;;;;;;;74.07;33.00;;;-5.40;72.30;;;;;;5094984;28;20066;-76
2024/01/13 04:10:18;;;;;;;69.63;30.30;;;-5.50;72.00;;;;;;5076683;28;20035;-76
2024/01/13 04:12:45;;;;;;;72.50;31.17;;;-5.40;71.70;;;;;;5094881;28;20028;-76
2024/01/13 04:15:10;;;;;;;72.35;32.20;;;-5.40;71.50;;;;;;5094742;28;20020;-75
2024/01/13 04:17:36;;;;;;;73.78;32.72;;;-5.50;70.90;;;;;;5094835;28;20028;-76
2024/01/13 04:20:02;;;;;;;74.63;33.05;;;-5.50;70.60;;;;;;5094675;28;20099;-76
2024/01/13 04:22:28;;;;;;;72.13;32.58;;;-5.50;70.60;;;;;;5094569;28;20493;-77
2024/01/13 04:24:53;;;;;;;75.45;35.25;;;-5.60;70.40;;;;;;5094500;28;20054;-77
2024/01/13 04:27:19;;;;;;;74.45;32.25;;;-5.60;70.20;;;;;;5076336;28;20472;-77
2024/01/13 04:29:45;;;;;;;81.28;32.45;;;-5.70;70.00;;;;;;5094559;28;20479;-77
2024/01/13 04:32:10;;;;;;;64.82;29.20;;;-5.80;70.10;;;;;;5076314;28;20039;-78
2024/01/13 04:34:36;;;;;;;69.32;31.27;;;-5.80;70.70;;;;;;5094124;28;20432;-77
2024/01/13 04:37:02;;;;;;;81.45;31.77;;;-5.80;71.60;;;;;;5094158;28;20040;-77
2024/01/13 04:39:27;;;;;;;76.72;31.88;;;-5.90;71.90;;;;;;5094302;28;20051;-77
2024/01/13 04:41:53;;;;;;;69.57;30.83;;;-5.90;72.00;;;;;;5094093;28;20373;-76
2024/01/13 04:44:18;;;;;;;72.95;30.33;;;-6.00;72.40;;;;;;5094102;28;20055;-77
2024/01/13 04:46:45;;;;;;;71.03;30.65;;;-5.90;73.00;;;;;;5094465;28;20135;-75
2024/01/13 04:49:10;;;;;;;73.55;30.20;;;-5.90;73.00;;;;;;5094249;28;20090;-75
2024/01/13 04:51:36;;;;;;;70.55;30.67;;;-5.90;72.00;;;;;;5094281;28;20027;-75
2024/01/13 04:54:03;;;;;;;71.47;31.08;;;-5.90;71.70;;;;;;5094132;28;20047;-75
2024/01/13 04:56:29;;;;;;;71.28;30.55;;;-6.00;71.60;;;;;;5094493;28;20020;-75
2024/01/13 04:58:54;;;;;;;75.32;33.50;;;-6.00;72.00;;;;;;5076015;28;20465;-75
2024/01/13 05:01:20;;;;;;;79.65;32.45;;;-6.00;72.20;;;;;;5076078;28;20035;-76
2024/01/13 05:03:45;;;;;;;72.20;31.67;;;-5.90;72.40;;;;;;5094247;28;20110;-75
2024/01/13 05:06:11;;;;;;;78.00;31.38;;;-5.90;72.60;;;;;;5094225;28;20421;-75
2024/01/13 05:08:37;;;;;;;75.15;29.80;;;-5.90;72.70;;;;;;5075894;28;20110;-75
2024/01/13 05:11:03;;;;;;;71.80;30.23;;;-5.90;73.20;;;;;;5093731;28;20036;-75
2024/01/13 05:13:28;;;;;;;78.28;32.42;;;-5.80;73.50;;;;;;5093660;28;20084;-75
2024/01/13 05:15:54;;;;;;;81.55;31.73;;;-5.80;73.50;;;;;;5093657;28;20028;-75
2024/01/13 05:18:19;;;;;;;79.38;31.60;;;-5.80;74.30;;;;;;5093608;28;20026;-75
2024/01/13 05:20:45;;;;;;;148.75;31.63;;;-5.70;74.40;;;;;;5093695;28;20464;-75
2024/01/13 05:23:10;;;;;;;74.53;28.92;;;-5.60;74.10;;;;;;5093486;28;20028;-75
2024/01/13 05:25:36;;;;;;;89.70;31.00;;;-5.60;74.00;;;;;;5093355;28;20040;-76
2024/01/13 05:28:03;;;;;;;75.85;29.45;;;-5.80;74.80;;;;;;5093404;28;20022;-75
2024/01/13 05:30:32;;;;;;;104.32;31.40;;;-5.90;75.60;;;;;;5093394;28;20343;-76
2024/01/13 05:32:59;;;;;;;91.30;33.80;;;-5.90;76.00;;;;;;5093265;28;20016;-75
2024/01/13 05:35:24;;;;;;;83.75;31.83;;;-6.00;76.70;;;;;;5093209;28;20447;-76
2024/01/13 05:37:50;;;;;;;103.22;33.28;;;-6.10;77.70;;;;;;5092986;28;20210;-76
2024/01/13 05:40:16;;;;;;;77.53;32.10;;;-6.10;78.40;;;;;;5093291;28;20393;-76
2024/01/13 05:42:41;;;;;;;100.65;33.42;;;-6.10;78.60;;;;;;5099417;28;20362;-76
2024/01/13 05:45:07;;;;;;;94.70;32.10;;;-6.00;78.70;;;;;;5093011;28;20035;-76
2024/01/13 05:47:34;;;;;;;102.00;30.92;;;-6.00;78.60;;;;;;5093083;28;20020;-77
2024/01/13 05:50:00;;;;;;;77.95;27.50;;;-6.10;78.80;;;;;;5093202;28;20031;-75
2024/01/13 05:52:25;;;;;;;133.75;32.22;;;-6.20;79.00;;;;;;5093036;28;20070;-75
2024/01/13 05:54:51;;;;;;;76.53;32.03;;;-6.20;79.00;;;;;;5092449;28;20043;-76
2024/01/13 05:57:16;;;;;;;78.00;32.10;;;-6.20;79.20;;;;;;5093217;28;20043;-75
2024/01/13 05:59:42;;;;;;;78.72;31.17;;;-6.20;79.00;;;;;;5093135;28;20120;-75
2024/01/13 06:02:08;;;;;;;78.53;31.33;;;-6.10;78.40;;;;;;5093030;28;20035;-76
2024/01/13 06:04:33;;;;;;;76.22;31.20;;;-5.90;78.00;;;;;;5092724;28;20096;-75
2024/01/13 06:06:59;;;;;;;76.38;29.75;;;-5.90;77.20;;;;;;5092855;28;20032;-75
2024/01/13 06:09:24;;;;;;;75.97;31.27;;;-5.80;76.40;;;;;;5092968;28;20103;-76
2024/01/13 06:11:50;;;;;;;77.13;31.10;;;-5.70;75.90;;;;;;5092882;28;20028;-76
2024/01/13 06:14:15;;;;;;;71.78;29.65;;;-5.60;75.50;;;;;;5092816;28;20020;-75
2024/01/13 06:16:41;;;;;;;68.50;29.70;;;-5.60;75.10;;;;;;5092934;28;20020;-77
2024/01/13 06:19:07;;;;;;;73.55;30.38;;;-5.50;75.20;;;;;;5092721;28;20020;-77
2024/01/13 06:21:39;;;;;;;73.55;30.48;;;-5.50;74.80;;;;;;5092961;28;20036;-77
2024/01/13 06:24:05;;;;;;;68.07;29.85;;;-5.50;74.40;;;;;;5092895;28;20016;-77
2024/01/13 06:26:30;;;;;;;70.18;31.88;;;-5.50;74.20;;;;;;5092844;28;20035;-77
2024/01/13 06:28:56;;;;;;;63.67;30.23;;;-5.50;74.20;;;;;;5092657;28;20073;-77
2024/01/13 06:31:21;;;;;;;62.60;29.15;;;-5.50;74.00;;;;;;5074555;28;20112;-77
2024/01/13 06:33:47;;;;;;;63.28;31.02;;;-5.50;73.70;;;;;;5092513;28;20032;-77
2024/01/13 06:36:14;;;;;;;65.70;29.58;;;-5.40;73.60;;;;;;5092356;28;20044;-77
2024/01/13 06:38:39;;;;;;;66.22;31.52;;;-5.40;73.40;;;;;;5092510;28;20028;-77
2024/01/13 06:41:05;;;;;;;70.20;30.95;;;-5.50;73.10;;;;;;5092540;28;20016;-77
2024/01/13 06:43:30;;;;;;;77.57;32.38;;;-5.60;73.20;;;;;;5092271;28;20047;-77
2024/01/13 06:45:56;;;;;;;72.32;31.35;;;-5.70;73.30;;;;;;5091813;28;20036;-77
2024/01/13 06:48:21;;;;;;;69.00;29.23;;;-5.60;73.70;;;;;;5092478;28;20384;-77
2024/01/13 06:50:47;;;;;;;74.57;28.10;;;-5.60;73.70;;;;;;5092478;28;20034;-77
2024/01/13 06:53:13;;;;;;;69.05;28.42;;;-5.60;73.30;;;;;;5092494;28;20431;-76
2024/01/13 06:55:38;;;;;;;63.92;29.02;;;-5.60;73.00;;;;;;5092406;28;20016;-77
2024/01/13 06:58:04;;;;;;;65.53;30.50;;;-5.60;71.00;;;;;;5092296;28;20027;-77
2024/01/13 07:00:29;;;;;;;64.70;28.45;;;-5.80;69.70;;;;;;5092222;28;20028;-77
2024/01/13 07:02:55;;;;;;;67.78;30.75;;;-5.80;69.80;;;;;;5091904;28;20373;-77
2024/01/13 07:05:20;;;;;;;62.55;29.00;;;-5.90;68.60;;;;;;5093311;28;20499;-77
2024/01/13 07:07:46;;;;;;;66.60;29.10;;;-6.00;68.50;;;;;;5077860;28;20464;-77
2024/01/13 07:10:12;;;;;;;64.63;28.95;;;-6.10;69.00;;;;;;5095951;28;20102;-77
2024/01/13 07:12:37;;;;;;;66.28;28.27;;;-6.20;69.10;;;;;;5096015;28;20361;-76
2024/01/13 07:15:03;;;;;;;64.22;28.73;;;-6.10;69.40;;;;;;5095918;28;20028;-77
2024/01/13 07:17:29;;;;;;;62.90;29.10;;;-6.10;69.30;;;;;;5077787;28;20047;-77
2024/01/13 07:19:54;;;;;;;58.63;28.42;;;-6.10;69.30;;;;;;5077385;28;20027;-76
2024/01/13 07:22:20;;;;;;;68.35;30.25;;;-6.10;69.10;;;;;;5095729;28;20028;-76
2024/01/13 07:24:46;;;;;;;60.05;27.90;;;-6.10;68.90;;;;;;5095726;28;20039;-76
2024/01/13 07:27:12;;;;;;;67.75;27.98;;;-6.10;68.40;;;;;;5095951;28;20077;-75
2024/01/13 07:29:38;;;;;;;60.90;27.63;;;-6.10;68.40;;;;;;5095609;28;20091;-75
2024/01/13 07:32:04;;;;;;;64.00;30.30;;;-6.10;68.30;;;;;;5095466;28;20066;-75
2024/01/13 07:34:29;;;;;;;71.82;30.40;;;-6.10;68.00;;;;;;5095387;28;20032;-73
2024/01/13 07:36:55;;;;;;;64.13;28.27;;;-6.10;67.70;;;;;;5077105;28;20135;-76
2024/01/13 07:39:21;;;;;;;64.72;28.55;;;-6.10;67.90;;;;;;5077226;28;20024;-74
2024/01/13 07:41:48;;;;;;;67.22;29.42;;;-6.00;67.60;;;;;;5095302;28;20419;-75
2024/01/13 07:44:14;;;;;;;71.00;28.92;;;-6.00;67.50;;;;;;5095220;28;20051;-76
2024/01/13 07:46:41;;;;;;;66.63;27.40;;;-6.00;67.60;;;;;;5077018;28;20473;-76
2024/01/13 07:49:07;;;;;;;61.58;27.55;;;-5.90;67.80;;;;;;5095096;28;20124;-75
2024/01/13 07:51:32;;;;;;;69.72;29.50;;;-5.80;67.70;;;;;;5094837;28;20480;-79
2024/01/13 07:53:58;;;;;;;73.45;31.52;;;-5.70;67.50;;;;;;5095331;28;20021;-74
2024/01/13 07:56:24;;;;;;;68.32;33.90;;;-4.90;86.20;;;;;;5095116;28;20021;-74
2024/01/13 07:58:49;;;;;;;75.30;35.08;;;-4.60;87.30;;;;;;5095114;28;20468;-75
2024/01/13 08:01:15;;;;;;;65.22;33.08;;;-4.60;81.90;;;;;;5077184;28;20424;-74
2024/01/13 08:03:41;;;;;;;69.70;34.90;;;-4.20;76.00;;;;;;5095004;28;20031;-74
2024/01/13 08:06:07;;;;;;;68.20;36.30;;;-3.90;71.90;;;;;;5076898;28;20032;-75
2024/01/13 08:08:32;;;;;;;81.38;38.03;;;-3.50;68.70;;;;;;5094980;28;20093;-75
2024/01/13 08:10:58;;;;;;;75.10;35.03;;;-3.10;67.00;;;;;;5077058;28;20380;-75
2024/01/13 08:13:23;;;;;;;69.30;32.35;;;-3.00;63.90;;;;;;5077085;28;20065;-75
2024/01/13 08:15:49;;;;;;;75.82;33.45;;;-3.00;62.80;;;;;;5094751;28;20047;-75
2024/01/13 08:18:15;;;;;;;76.63;35.33;;;-3.50;61.00;;;;;;5094102;28;20024;-76
2024/01/13 08:20:40;;;;;;;72.95;33.95;;;-3.80;62.20;;;;;;5076248;28;20024;-76
2024/01/13 08:23:06;;;;;;;76.07;32.83;;;-4.50;63.20;;;;;;5076470;28;20541;-75
2024/01/13 08:25:31;;;;;;;78.68;33.25;;;-5.20;66.60;;;;;;5076537;28;20040;-76
2024/01/13 08:27:57;;;;;;;77.90;34.47;;;-5.30;67.50;;;;;;5076718;28;20058;-75
2024/01/13 08:30:23;;;;;;;75.70;33.22;;;-5.40;67.80;;;;;;5076702;28;20024;-75
2024/01/13 08:32:51;;;;;;;76.53;33.75;;;-5.30;68.30;;;;;;5076795;28;20042;-75
2024/01/13 08:35:17;;;;;;;81.13;35.65;;;-5.20;68.40;;;;;;5060523;28;20024;-76
2024/01/13 08:37:42;;;;;;;82.05;35.80;;;-5.00;68.20;;;;;;5076210;28;20109;-76
2024/01/13 08:40:09;;;;;;;76.80;35.70;;;-4.80;68.10;;;;;;5059718;28;20054;-76
2024/01/13 08:42:37;;;;;;;74.78;32.88;;;-4.60;67.80;;;;;;5076120;28;20020;-77
2024/01/13 08:45:03;;;;;;;82.35;37.58;;;-4.40;67.20;;;;;;5075487;28;20047;-76
2024/01/13 08:47:29;;;;;;;73.63;32.75;;;-4.30;65.90;;;;;;5076191;28;20111;-76
2024/01/13 08:49:55;;;;;;;77.07;33.47;;;-4.40;65.00;;;;;;5093802;28;20056;-76
2024/01/13 08:52:20;;;;;;;82.97;34.10;;;-4.20;65.40;;;;;;5093680;28;20020;-76
2024/01/13 08:54:46;;;;;;;75.75;34.25;;;-4.10;64.50;;;;;;5075771;28;20028;-75
2024/01/13 08:57:12;;;;;;;74.93;35.65;;;-4.20;63.70;;;;;;5075900;28;20059;-76
2024/01/13 08:59:38;;;;;;;84.28;40.47;;;-4.30;63.40;;;;;;5093725;28;20380;-76
2024/01/13 09:02:06;;;;;;;84.38;38.80;;;-4.30;63.80;;;;;;5075688;28;20028;-75
2024/01/13 09:04:32;;;;;;;78.97;34.67;;;-4.30;64.10;;;;;;5075291;28;20035;-75
2024/01/13 09:06:57;;;;;;;81.25;35.38;;;-4.20;64.40;;;;;;5093659;28;20032;-76
2024/01/13 09:09:24;;;;;;;84.47;36.45;;;-4.00;64.80;;;;;;5074742;28;20028;-77
2024/01/13 09:11:50;;;;;;;77.82;36.97;;;-3.60;64.70;;;;;;5075634;28;20024;-76
2024/01/13 09:14:16;;;;;;;75.78;35.95;;;-3.30;63.70;;;;;;5058398;28;20021;-76
2024/01/13 09:16:45;;;;;;;76.10;38.38;;;-2.90;62.80;;;;;;5093142;28;20087;-76
2024/01/13 09:19:11;;;;;;;69.45;33.70;;;-2.60;60.90;;;;;;5075211;28;20039;-76
2024/01/13 09:21:37;;;;;;;66.28;33.60;;;-2.30;60.10;;;;;;5058339;28;20032;-76
2024/01/13 09:24:05;;;;;;;67.30;32.88;;;-1.90;59.10;;;;;;5075198;28;20408;-78
2024/01/13 09:26:30;;;;;;;64.63;32.80;;;-1.50;58.10;;;;;;5058455;28;20028;-77
2024/01/13 09:28:56;;;;;;;69.45;37.67;;;-1.20;56.60;;;;;;5074209;28;20024;-75
2024/01/13 09:31:22;;;;;;;70.43;35.92;;;-1.00;55.40;;;;;;5075214;28;20020;-76
2024/01/13 09:33:47;;;;;;;64.65;32.67;;;-1.10;54.50;;;;;;5075396;28;20457;-77
2024/01/13 09:36:13;;;;;;;61.15;34.25;;;-0.90;54.70;;;;;;5074841;28;20389;-77
2024/01/13 09:38:38;;;;;;;55.88;31.35;;;-1.30;53.60;;;;;;5074793;28;20040;-76
2024/01/13 09:41:04;;;;;;;62.25;31.08;;;-1.30;55.40;;;;;;5075014;28;20020;-77
2024/01/13 09:43:54;;;;;;;66.93;36.60;;;-1.30;54.40;;;;;;5075057;28;20454;-76
2024/01/13 09:46:20;;;;;;;73.18;36.33;;;-1.70;55.50;;;;;;5074993;28;20028;-76
2024/01/13 09:48:48;;;;;;;66.95;36.05;;;-1.60;56.20;;;;;;5074893;28;20031;-77
2024/01/13 09:51:14;;;;;;;58.60;31.98;;;-1.70;56.90;;;;;;5074141;28;20034;-76
2024/01/13 09:53:47;;;;;;;63.55;33.42;;;-1.50;57.30;;;;;;5074883;28;20451;-76
2024/01/13 09:56:22;;;;;;;60.50;34.50;;;-0.90;56.00;;;;;;5074639;28;20078;-76
2024/01/13 09:58:48;;;;;;;55.95;33.20;;;-0.60;53.70;;;;;;5092714;28;20435;-77
2024/01/13 10:01:15;;;;;;;59.05;31.92;;;-0.20;52.60;;;;;;5074779;28;20021;-76
2024/01/13 10:03:40;;;;;;;57.35;30.90;;;0.20;52.10;;;;;;5074562;28;20070;-76
2024/01/13 10:06:07;;;;;;;63.45;32.65;;;0.50;51.40;;;;;;5074858;28;20032;-77
2024/01/13 10:08:33;;;;;;;55.75;29.63;;;0.80;49.30;;;;;;5058548;28;20058;-76
2024/01/13 10:11:00;;;;;;;59.38;33.00;;;1.10;49.20;;;;;;5092111;28;20073;-74
2024/01/13 10:13:27;;;;;;;52.92;30.70;;;1.40;48.80;;;;;;5092664;28;20016;-77
2024/01/13 10:15:52;;;;;;;57.25;35.58;;;1.20;47.80;;;;;;5074508;28;20021;-77
2024/01/13 10:18:23;;;;;;;59.30;34.58;;;0.90;48.30;;;;;;5092505;28;20035;-77
2024/01/13 10:20:49;;;;;;;57.42;33.63;;;0.90;49.40;;;;;;5092449;28;20020;-77
2024/01/13 10:23:16;;;;;;;61.78;36.38;;;1.30;48.60;;;;;;5073752;28;20028;-77
2024/01/13 10:25:41;;;;;;;61.90;35.28;;;1.50;48.00;;;;;;5074115;28;20479;-77
2024/01/13 10:28:07;;;;;;;65.90;35.55;;;1.80;47.50;;;;;;5074586;28;20055;-77
2024/01/13 10:30:33;;;;;;;62.05;38.20;;;2.10;47.80;;;;;;5074436;28;20452;-77
2024/01/13 10:33:00;;;;;;;67.28;40.70;;;2.30;46.60;;;;;;5073660;28;20017;-77
2024/01/13 10:35:28;;;;;;;65.95;40.63;;;2.50;46.00;;;;;;5057511;28;20036;-77
2024/01/13 10:37:59;;;;;;;57.95;37.35;;;2.20;45.50;;;;;;5092016;28;20414;-77
2024/01/13 10:40:25;;;;;;;61.25;37.35;;;2.10;47.00;;;;;;5075948;28;20028;-78
2024/01/13 10:42:57;;;;;;;59.75;36.55;;;2.10;47.10;;;;;;5096066;28;20385;-75
2024/01/13 10:45:24;;;;;;;62.97;38.03;;;2.10;46.60;;;;;;5077864;28;20130;-76
2024/01/13 10:47:53;;;;;;;61.83;36.55;;;1.80;46.80;;;;;;5096081;28;20031;-75
2024/01/13 10:50:19;;;;;;;58.80;37.10;;;2.10;47.30;;;;;;5077379;28;20020;-76
2024/01/13 10:52:57;;;;;;;60.00;35.03;;;2.50;46.10;;;;;;5077130;28;20016;-77
2024/01/13 10:55:24;;;;;;;62.22;38.75;;;2.90;45.20;;;;;;5095591;28;20032;-78
2024/01/13 10:57:51;;;;;;;59.03;36.17;;;3.50;44.70;;;;;;5077642;28;20101;-77
2024/01/13 11:00:17;;;;;;;60.85;37.70;;;3.90;43.20;;;;;;5077940;28;20027;-75
2024/01/13 11:02:45;;;;;;;60.05;36.38;;;4.20;42.30;;;;;;5095724;28;20111;-77
2024/01/13 11:05:14;;;;;;;54.92;37.55;;;4.30;40.70;;;;;;5077740;28;20032;-76
2024/01/13 11:07:39;;;;;;;59.90;36.92;;;4.60;40.40;;;;;;5077675;28;20030;-78
2024/01/13 11:10:16;;;;;;;56.13;34.85;;;4.70;40.00;;;;;;5077466;28;20114;-76
2024/01/13 11:12:56;;;;;;;62.92;39.60;;;4.90;39.50;;;;;;5077554;28;20020;-77
2024/01/13 11:15:35;;;;;;;61.25;38.22;;;5.00;39.00;;;;;;5095771;28;20119;-77
2024/01/13 11:18:04;;;;;;;61.30;36.35;;;5.10;39.20;;;;;;5077528;28;20429;-78
2024/01/13 11:20:49;;;;;;;54.10;36.42;;;5.40;38.80;;;;;;5095965;28;20032;-79
2024/01/13 11:23:16;;;;;;;53.25;34.33;;;5.60;37.90;;;;;;5076891;28;20138;-78
2024/01/13 11:25:41;;;;;;;50.38;35.10;;;5.90;37.70;;;;;;5077123;28;20043;-77
2024/01/13 11:28:13;;;;;;;56.17;35.83;;;6.40;37.60;;;;;;5077395;28;20024;-77
2024/01/13 11:30:39;;;;;;;57.30;35.97;;;6.80;36.40;;;;;;5077445;28;20028;-77
2024/01/13 11:33:06;;;;;;;53.28;35.70;;;7.10;35.80;;;;;;5060944;28;20089;-76
2024/01/13 11:35:32;;;;;;;55.60;37.65;;;7.50;35.40;;;;;;5076179;28;20103;-76
2024/01/13 11:38:04;;;;;;;53.90;34.85;;;7.80;34.10;;;;;;5057041;28;20171;-77
2024/01/13 11:40:32;;;;;;;51.50;33.22;;;7.80;33.90;;;;;;5041103;28;20477;-77
2024/01/13 11:43:00;;;;;;;45.55;30.13;;;7.70;34.60;;;;;;5056872;28;20470;-75
2024/01/13 11:45:41;;;;;;;47.67;31.00;;;8.30;34.80;;;;;;5057777;28;20078;-77
2024/01/13 11:48:35;;;;;;;45.83;31.92;;;9.10;33.50;;;;;;5057332;28;20021;-78
2024/01/13 11:51:08;;;;;;;48.72;34.33;;;9.70;31.80;;;;;;5056837;28;20031;-78
2024/01/13 11:53:45;;;;;;;47.78;32.97;;;10.00;30.40;;;;;;5056899;28;20385;-78
2024/01/13 11:56:13;;;;;;;47.50;32.92;;;9.60;30.90;;;;;;5075172;28;20040;-77
2024/01/13 11:58:39;;;;;;;47.60;33.83;;;9.90;30.90;;;;;;5057368;28;20021;-76
2024/01/13 12:01:09;;;;;;;44.65;31.30;;;10.40;29.80;;;;;;5057092;28;20383;-77
2024/01/13 12:03:37;;;;;;;43.80;33.33;;;11.30;28.70;;;;;;5057193;28;20016;-76
2024/01/13 12:06:03;;;;;;;41.05;31.23;;;12.10;26.90;;;;;;5056616;28;20036;-76
2024/01/13 12:08:29;;;;;;;41.13;30.83;;;12.80;25.10;;;;;;5056243;28;20094;-77
2024/01/13 12:10:55;;;;;;;41.88;30.73;;;13.50;23.80;;;;;;5056510;28;20393;-78
2024/01/13 12:13:22;;;;;;;40.97;30.75;;;14.20;22.10;;;;;;5040006;28;20033;-78
2024/01/13 12:15:49;;;;;;;45.17;32.28;;;14.90;21.10;;;;;;5056921;28;20032;-78
2024/01/13 12:18:25;;;;;;;37.13;29.67;;;15.60;19.60;;;;;;5056948;28;20025;-77
2024/01/13 12:20:57;;;;;;;38.90;30.90;;;16.00;19.10;;;;;;5058284;28;20394;-76
2024/01/13 12:23:23;;;;;;;37.50;30.88;;;16.80;18.30;;;;;;5059847;28;20024;-76
2024/01/13 12:25:54;;;;;;;40.35;30.80;;;17.40;17.10;;;;;;5057773;28;20418;-77